KSCF/SCF METAR and TAF weather

Enter ICAO airport designator
Station Type Date Time Source
KSCF METAR 2019/04/25 09:55 UTC NOAA

KSCF 250955Z AUTO VRB04KT 6SM BR FEW014 OVC070 23/22 A2978 RMK A01


Station Type Date Time Source
KSCF Decoded METAR 2019/04/25 09:55 UTC NOAA

South Marsh 268, LA, United States (KSCF) 29-06-57N 091-52-16W
Apr 25, 2019 - 05:55 AM EDT / 2019.04.25 0955 UTC
Wind: Variable at 5 MPH (4 KT):0
Visibility: 6 mile(s):0
Sky conditions: overcast
Weather: mist
Temperature: 73 F (23 C)
Dew Point: 71 F (22 C)
Relative Humidity: 94%
Pressure (altimeter): 29.78 in. Hg (1008 hPa)
ob: KSCF 250955Z AUTO VRB04KT 6SM BR FEW014 OVC070 23/22 A2978 RMK A01
cycle: 10

Station Type Date Time Source
KSCF TAF UTC NOAA

Error!

Example: see airport list